Time;durP1;ratioP1;P1;durP2;ratioP2;P2;SDS_P1;SDS_P2;PMS_P1;PMS_P2;Temp;Humidity;BMP_temperature;BMP_pressure;BME280_temperature;BME280_humidity;BME280_pressure;Samples;Min_cycle;Max_cycle;Signal;HPM_P1;HPM_P2
2023/04/18 00:01:48;;;;;;;14.05;10.00;;;9.80;99.90;;;;;;4970506;28;20181;-44
2023/04/18 00:04:16;;;;;;;13.90;8.52;;;9.70;99.90;;;;;;4977655;28;20172;-44
2023/04/18 00:06:42;;;;;;;14.93;9.48;;;9.70;99.90;;;;;;4989306;28;20204;-44
2023/04/18 00:09:07;;;;;;;19.58;9.05;;;9.60;99.90;;;;;;4989377;28;20216;-43
2023/04/18 00:11:33;;;;;;;11.15;7.95;;;9.60;99.90;;;;;;4989939;28;20168;-44
2023/04/18 00:13:59;;;;;;;14.82;8.77;;;9.50;99.90;;;;;;4989642;28;20172;-44
2023/04/18 00:16:27;;;;;;;12.13;8.52;;;9.60;99.90;;;;;;4989627;28;20169;-43
2023/04/18 00:18:53;;;;;;;18.13;8.90;;;9.50;99.90;;;;;;4989923;28;20226;-44
2023/04/18 00:21:18;;;;;;;15.82;9.43;;;9.40;99.90;;;;;;4989889;28;20176;-43
2023/04/18 00:23:45;;;;;;;13.02;8.52;;;9.40;99.90;;;;;;4989226;28;20567;-44
2023/04/18 00:26:10;;;;;;;11.23;8.10;;;9.40;99.90;;;;;;4988660;28;20169;-44
2023/04/18 00:28:36;;;;;;;16.90;9.00;;;9.30;99.90;;;;;;4989830;28;20229;-44
2023/04/18 00:31:02;;;;;;;14.10;8.73;;;9.20;99.90;;;;;;4989780;28;20191;-43
2023/04/18 00:33:28;;;;;;;13.13;8.27;;;9.20;99.90;;;;;;4988414;28;20183;-43
2023/04/18 00:35:53;;;;;;;15.18;8.70;;;9.20;99.90;;;;;;4970018;28;20185;-43
2023/04/18 00:38:19;;;;;;;12.73;9.07;;;9.10;99.90;;;;;;4969961;28;20184;-44
2023/04/18 00:40:45;;;;;;;15.23;9.18;;;;;;;;;;4970054;28;20181;-44
2023/04/18 00:43:14;;;;;;;13.90;9.13;;;9.20;99.90;;;;;;4970485;28;20177;-44
2023/04/18 00:45:39;;;;;;;15.43;9.32;;;9.10;99.90;;;;;;4970289;28;20664;-44
2023/04/18 00:48:05;;;;;;;13.55;9.13;;;9.00;99.90;;;;;;4970067;28;20209;-43
2023/04/18 00:50:31;;;;;;;11.55;8.32;;;9.00;99.90;;;;;;4969925;28;20215;-43
2023/04/18 00:52:57;;;;;;;13.20;9.13;;;9.00;99.90;;;;;;4969859;28;20641;-44
2023/04/18 00:55:23;;;;;;;13.18;8.00;;;9.00;99.90;;;;;;4968556;28;20197;-43
2023/04/18 00:57:49;;;;;;;15.02;8.85;;;9.00;99.90;;;;;;4969761;28;20256;-44
2023/04/18 01:00:15;;;;;;;12.00;8.50;;;8.90;99.90;;;;;;4969795;28;20174;-44
2023/04/18 01:02:41;;;;;;;13.52;8.20;;;9.00;99.90;;;;;;4970372;28;20228;-44
2023/04/18 01:05:07;;;;;;;10.60;7.97;;;;;;;;;;4985193;28;20663;-43
2023/04/18 01:07:36;;;;;;;13.07;7.93;;;8.80;99.90;;;;;;4969078;28;20209;-44
2023/04/18 01:10:02;;;;;;;11.40;7.95;;;8.70;99.90;;;;;;4969029;28;20234;-44
2023/04/18 01:12:27;;;;;;;12.63;7.63;;;8.60;99.90;;;;;;4969126;28;20170;-43
2023/04/18 01:14:53;;;;;;;11.52;7.18;;;8.60;99.90;;;;;;4969330;28;20605;-44
2023/04/18 01:17:19;;;;;;;10.48;7.38;;;;;;;;;;4969261;28;20173;-44
2023/04/18 01:19:47;;;;;;;12.20;7.78;;;8.50;99.90;;;;;;4969196;28;20218;-43
2023/04/18 01:22:14;;;;;;;10.35;7.22;;;;;;;;;;4969355;28;20288;-44
2023/04/18 01:24:41;;;;;;;9.50;7.18;;;8.20;99.90;;;;;;4983753;28;20177;-46
2023/04/18 01:27:09;;;;;;;10.10;7.00;;;8.30;99.90;;;;;;4988480;28;20572;-44
2023/04/18 01:29:35;;;;;;;13.23;7.20;;;8.10;99.90;;;;;;4988526;28;20551;-46
2023/04/18 01:32:01;;;;;;;12.43;7.68;;;8.40;99.90;;;;;;4986738;28;20177;-46
2023/04/18 01:34:27;;;;;;;9.52;7.60;;;;;;;;;;4988684;28;20574;-46
2023/04/18 01:36:52;;;;;;;10.65;7.22;;;8.20;99.90;;;;;;4991465;28;20176;-46
2023/04/18 01:39:18;;;;;;;10.80;7.07;;;8.30;99.90;;;;;;4990350;28;20165;-46
2023/04/18 01:41:44;;;;;;;13.68;7.43;;;;;;;;;;4991937;28;20168;-45
2023/04/18 01:44:10;;;;;;;10.43;7.03;;;8.20;99.90;;;;;;4979170;28;20174;-46
2023/04/18 01:46:35;;;;;;;11.15;7.32;;;8.20;99.90;;;;;;4972232;28;20204;-44
2023/04/18 01:49:01;;;;;;;12.02;8.15;;;;;;;;;;4972031;28;20639;-44
2023/04/18 01:51:27;;;;;;;12.32;7.60;;;8.10;99.90;;;;;;4975494;28;20639;-44
2023/04/18 01:53:53;;;;;;;13.93;7.13;;;8.00;99.90;;;;;;4991296;28;20184;-43
2023/04/18 01:56:18;;;;;;;10.05;6.88;;;8.10;99.90;;;;;;4991670;28;20504;-43
2023/04/18 01:58:44;;;;;;;10.32;7.75;;;;;;;;;;4991331;28;20251;-43
2023/04/18 02:01:10;;;;;;;13.73;8.35;;;8.00;99.90;;;;;;4991693;28;20254;-44
2023/04/18 02:03:35;;;;;;;13.57;7.30;;;8.10;99.90;;;;;;4980921;28;20184;-44
2023/04/18 02:06:02;;;;;;;14.05;7.25;;;8.20;99.90;;;;;;4972086;28;20257;-44
2023/04/18 02:08:29;;;;;;;8.73;6.82;;;8.20;99.90;;;;;;4971669;28;20259;-44
2023/04/18 02:10:55;;;;;;;11.27;8.00;;;8.20;99.90;;;;;;4971824;28;20173;-44
2023/04/18 02:13:20;;;;;;;12.75;8.10;;;8.30;99.90;;;;;;4971664;28;20184;-45
2023/04/18 02:15:46;;;;;;;12.75;7.97;;;8.20;99.90;;;;;;4971485;28;20502;-45
2023/04/18 02:18:12;;;;;;;12.90;7.35;;;;;;;;;;4972026;28;20240;-44
2023/04/18 02:20:38;;;;;;;11.35;7.15;;;8.20;99.90;;;;;;4971338;28;20173;-44
2023/04/18 02:23:04;;;;;;;13.07;7.70;;;8.20;99.90;;;;;;4979153;28;20168;-44
2023/04/18 02:25:30;;;;;;;11.82;8.05;;;;;;;;;;4978973;28;20661;-44
2023/04/18 02:27:56;;;;;;;10.68;7.38;;;8.20;99.90;;;;;;4971599;28;20288;-44
2023/04/18 02:30:23;;;;;;;11.65;8.05;;;8.20;99.90;;;;;;4971407;28;20227;-44
2023/04/18 02:32:53;;;;;;;13.52;8.30;;;8.00;99.90;;;;;;4971436;28;20174;-44
2023/04/18 02:35:19;;;;;;;11.35;8.00;;;8.00;99.90;;;;;;4971200;28;20637;-44
2023/04/18 02:37:45;;;;;;;13.00;8.05;;;;;;;;;;4971258;28;20256;-44
2023/04/18 02:40:11;;;;;;;13.05;8.90;;;8.00;99.90;;;;;;4971578;28;20224;-44
2023/04/18 02:42:38;;;;;;;10.73;7.45;;;;;;;;;;4970412;28;20169;-45
2023/04/18 02:45:04;;;;;;;11.93;8.45;;;8.00;99.90;;;;;;4971206;28;20196;-46
2023/04/18 02:47:30;;;;;;;10.23;7.80;;;7.90;99.90;;;;;;4970346;28;20262;-44
2023/04/18 02:49:55;;;;;;;13.45;8.30;;;7.80;99.90;;;;;;4971034;28;20256;-44
2023/04/18 02:52:21;;;;;;;11.43;8.50;;;;;;;;;;4970902;28;20184;-44
2023/04/18 02:54:47;;;;;;;12.45;8.27;;;7.80;99.90;;;;;;4971994;28;20181;-44
2023/04/18 02:57:12;;;;;;;11.18;8.43;;;7.80;99.90;;;;;;4971227;28;20170;-44
2023/04/18 02:59:38;;;;;;;14.60;8.48;;;;;;;;;;4970990;28;20174;-45
2023/04/18 03:02:04;;;;;;;13.27;8.75;;;7.70;99.90;;;;;;4971038;28;20173;-44
2023/04/18 03:04:29;;;;;;;13.55;8.80;;;7.70;99.90;;;;;;4970947;28;20257;-44
2023/04/18 03:06:56;;;;;;;13.10;8.18;;;7.70;99.90;;;;;;4970618;28;20212;-44
2023/04/18 03:09:22;;;;;;;13.85;8.85;;;7.60;99.90;;;;;;4970528;28;20693;-44
2023/04/18 03:11:48;;;;;;;11.80;8.52;;;;;;;;;;4970832;28;20253;-44
2023/04/18 03:14:14;;;;;;;14.63;8.88;;;;;;;;;;4978412;28;20251;-44
2023/04/18 03:16:39;;;;;;;12.18;8.40;;;7.60;99.90;;;;;;4990614;28;20184;-44
2023/04/18 03:19:05;;;;;;;13.82;9.45;;;7.60;99.90;;;;;;4990268;28;20663;-43
2023/04/18 03:21:30;;;;;;;15.88;8.55;;;7.60;99.90;;;;;;4989784;28;20193;-44
2023/04/18 03:23:56;;;;;;;11.90;7.53;;;;;;;;;;4990006;28;20241;-44
2023/04/18 03:26:23;;;;;;;13.63;8.60;;;7.40;99.90;;;;;;4990217;28;20185;-44
2023/04/18 03:28:48;;;;;;;14.57;8.98;;;7.50;99.90;;;;;;4989950;28;20181;-43
2023/04/18 03:31:14;;;;;;;15.20;8.65;;;7.40;99.90;;;;;;4989912;28;20169;-44
2023/04/18 03:33:41;;;;;;;13.00;8.00;;;7.30;99.90;;;;;;4990339;28;20173;-44
2023/04/18 03:36:07;;;;;;;15.90;8.95;;;7.50;99.90;;;;;;4989767;28;20535;-43
2023/04/18 03:38:32;;;;;;;14.85;9.55;;;7.50;99.90;;;;;;4989873;28;20652;-44
2023/04/18 03:40:59;;;;;;;14.60;9.20;;;7.40;99.90;;;;;;4988536;28;20177;-44
2023/04/18 03:43:24;;;;;;;14.70;9.18;;;7.40;99.90;;;;;;4977654;28;20180;-44
2023/04/18 03:45:50;;;;;;;15.65;9.18;;;7.40;99.90;;;;;;4970201;28;20182;-44
2023/04/18 03:48:15;;;;;;;15.35;9.05;;;7.30;99.90;;;;;;4970077;28;20545;-44
2023/04/18 03:50:41;;;;;;;13.27;9.25;;;;;;;;;;4970642;28;20169;-44
2023/04/18 03:53:07;;;;;;;12.30;8.23;;;7.40;99.90;;;;;;4970225;28;20264;-44
2023/04/18 03:55:32;;;;;;;15.32;8.32;;;7.40;99.90;;;;;;4970145;28;20256;-44
2023/04/18 03:57:58;;;;;;;17.17;8.70;;;7.40;99.90;;;;;;4969781;28;20695;-44
2023/04/18 04:00:24;;;;;;;13.10;8.30;;;7.40;99.90;;;;;;4969989;28;20260;-44
2023/04/18 04:02:50;;;;;;;12.07;8.98;;;7.40;99.90;;;;;;4969638;28;20215;-44
2023/04/18 04:05:16;;;;;;;12.43;8.95;;;;;;;;;;4977479;28;20172;-45
2023/04/18 04:07:42;;;;;;;16.98;8.63;;;7.30;99.90;;;;;;4989168;28;20698;-45
2023/04/18 04:10:08;;;;;;;12.52;9.07;;;7.30;99.90;;;;;;4989144;28;20208;-43
2023/04/18 04:12:34;;;;;;;15.55;8.43;;;7.20;99.90;;;;;;4989399;28;20173;-44
2023/04/18 04:15:00;;;;;;;14.00;9.55;;;7.20;99.90;;;;;;4989523;28;20169;-44
2023/04/18 04:17:26;;;;;;;12.02;9.27;;;7.20;99.90;;;;;;4989253;28;20195;-44
2023/04/18 04:19:51;;;;;;;17.15;8.98;;;7.30;99.90;;;;;;4989051;28;20173;-44
2023/04/18 04:22:17;;;;;;;12.07;8.90;;;7.40;99.90;;;;;;4989122;28;20169;-45
2023/04/18 04:24:43;;;;;;;15.30;8.98;;;7.30;99.90;;;;;;4989540;28;20165;-44
2023/04/18 04:27:10;;;;;;;15.45;9.20;;;7.20;99.90;;;;;;4988134;28;20204;-44
2023/04/18 04:29:37;;;;;;;13.55;9.85;;;;;;;;;;4989322;28;20252;-45
2023/04/18 04:32:04;;;;;;;13.25;9.10;;;7.20;99.90;;;;;;4989210;28;20208;-45
2023/04/18 04:34:30;;;;;;;12.95;8.98;;;7.10;99.90;;;;;;4987236;28;20185;-46
2023/04/18 04:36:56;;;;;;;13.45;9.70;;;7.10;99.90;;;;;;4969672;28;20235;-44
2023/04/18 04:39:21;;;;;;;13.18;9.60;;;7.00;99.90;;;;;;4969402;28;20168;-45
2023/04/18 04:41:47;;;;;;;13.60;9.02;;;7.00;99.90;;;;;;4969320;28;20174;-45
2023/04/18 04:44:16;;;;;;;14.60;9.20;;;;;;;;;;4969399;28;20746;-44
2023/04/18 04:46:43;;;;;;;16.17;9.40;;;6.90;99.90;;;;;;4969903;28;20205;-45
2023/04/18 04:49:12;;;;;;;12.38;8.38;;;6.90;99.90;;;;;;4969884;28;20260;-45
2023/04/18 04:51:38;;;;;;;13.40;9.23;;;6.80;99.90;;;;;;4969354;28;20165;-44
2023/04/18 04:54:04;;;;;;;14.55;9.07;;;;;;;;;;4969388;28;20509;-45
2023/04/18 04:56:30;;;;;;;15.20;9.50;;;6.90;99.90;;;;;;4969336;28;20539;-44
2023/04/18 04:58:56;;;;;;;12.95;9.43;;;6.90;99.90;;;;;;4969105;28;20173;-47
2023/04/18 05:01:21;;;;;;;12.55;9.38;;;6.80;99.90;;;;;;4969671;28;20537;-44
2023/04/18 05:03:48;;;;;;;13.98;9.20;;;6.90;99.90;;;;;;4969229;28;20171;-44
2023/04/18 05:06:19;;;;;;;13.60;8.93;;;6.80;99.90;;;;;;4986622;28;20188;-45
2023/04/18 05:08:48;;;;;;;12.80;8.57;;;6.90;99.90;;;;;;4988610;28;20224;-45
2023/04/18 05:11:14;;;;;;;13.98;9.23;;;7.00;99.90;;;;;;4991381;28;20195;-44
2023/04/18 05:13:40;;;;;;;13.27;9.70;;;7.00;99.90;;;;;;4992367;28;20168;-45
2023/04/18 05:16:06;;;;;;;14.77;8.85;;;7.00;99.90;;;;;;4991873;28;20626;-45
2023/04/18 05:18:32;;;;;;;13.55;9.75;;;7.00;99.90;;;;;;4992035;28;20165;-45
2023/04/18 05:20:57;;;;;;;17.38;10.15;;;7.10;99.90;;;;;;4991891;28;20196;-46
2023/04/18 05:23:23;;;;;;;13.30;10.07;;;;;;;;;;4991972;28;20643;-46
2023/04/18 05:25:49;;;;;;;12.73;9.52;;;7.10;99.90;;;;;;4991848;28;20173;-45
2023/04/18 05:28:15;;;;;;;13.30;9.57;;;;;;;;;;4991517;28;20671;-46
2023/04/18 05:30:41;;;;;;;12.55;9.18;;;;;;;;;;4992559;28;20165;-45
2023/04/18 05:33:07;;;;;;;16.50;9.90;;;7.60;99.90;;;;;;4991673;28;20244;-45
2023/04/18 05:35:33;;;;;;;15.68;10.30;;;7.60;99.90;;;;;;4979255;28;20177;-44
2023/04/18 05:37:58;;;;;;;15.77;9.45;;;7.70;99.90;;;;;;4972095;28;20695;-44
2023/04/18 05:40:26;;;;;;;13.45;10.48;;;7.80;99.90;;;;;;4979984;28;20202;-45
2023/04/18 05:42:51;;;;;;;13.07;9.75;;;7.80;99.90;;;;;;4971245;28;20181;-45
2023/04/18 05:45:17;;;;;;;13.02;10.32;;;;;;;;;;4972059;28;20633;-44
2023/04/18 05:47:43;;;;;;;13.13;10.07;;;;;;;;;;4971891;28;20209;-44
2023/04/18 05:50:09;;;;;;;13.63;10.43;;;8.00;99.90;;;;;;4972406;28;20180;-45
2023/04/18 05:52:36;;;;;;;13.77;10.10;;;8.10;99.90;;;;;;4971861;28;20173;-44
2023/04/18 05:55:02;;;;;;;16.55;11.13;;;8.00;99.90;;;;;;4972143;28;20185;-44
2023/04/18 05:57:28;;;;;;;15.57;10.95;;;8.10;99.90;;;;;;4970982;28;20280;-44
2023/04/18 05:59:53;;;;;;;16.92;11.18;;;8.20;99.90;;;;;;4970498;28;20180;-45
2023/04/18 06:02:19;;;;;;;19.20;11.23;;;8.30;99.90;;;;;;4971821;28;20174;-44
2023/04/18 06:04:45;;;;;;;20.25;11.02;;;8.30;99.90;;;;;;4971994;28;20197;-45
2023/04/18 06:07:10;;;;;;;18.23;10.77;;;8.20;99.90;;;;;;4972088;28;20328;-45
2023/04/18 06:09:36;;;;;;;15.23;10.65;;;;;;;;;;4971539;28;20298;-45
2023/04/18 06:12:02;;;;;;;15.95;10.63;;;8.50;99.90;;;;;;4983008;28;20170;-44
2023/04/18 06:14:28;;;;;;;15.40;10.50;;;8.40;99.90;;;;;;4987098;28;20293;-44
2023/04/18 06:16:54;;;;;;;13.20;9.73;;;8.70;99.90;;;;;;4991235;28;20172;-44
2023/04/18 06:19:20;;;;;;;13.23;10.02;;;;;;;;;;4974003;28;20177;-43
2023/04/18 06:21:47;;;;;;;14.38;10.45;;;8.90;99.90;;;;;;4969189;28;20173;-44
2023/04/18 06:24:13;;;;;;;16.75;11.45;;;9.00;99.90;;;;;;4971512;28;20166;-44
2023/04/18 06:26:39;;;;;;;12.82;10.10;;;9.30;99.90;;;;;;4989258;28;20192;-45
2023/04/18 06:29:04;;;;;;;13.32;9.85;;;9.50;99.90;;;;;;4977332;28;20212;-44
2023/04/18 06:31:30;;;;;;;13.15;9.77;;;9.60;99.90;;;;;;4971408;28;20256;-44
2023/04/18 06:33:55;;;;;;;17.38;10.63;;;9.80;99.90;;;;;;4971457;28;20540;-44
2023/04/18 06:36:21;;;;;;;15.30;10.48;;;9.90;99.90;;;;;;4971370;28;20765;-44
2023/04/18 06:38:47;;;;;;;17.98;9.88;;;10.00;99.90;;;;;;4971418;28;20272;-45
2023/04/18 06:41:14;;;;;;;12.55;9.77;;;9.90;99.90;;;;;;4979946;28;20180;-45
2023/04/18 06:43:40;;;;;;;14.20;10.35;;;10.00;99.90;;;;;;4991008;28;20234;-44
2023/04/18 06:46:06;;;;;;;13.80;9.20;;;;;;;;;;4990681;28;20529;-45
2023/04/18 06:48:31;;;;;;;11.75;9.00;;;10.20;99.90;;;;;;4989498;28;20212;-45
2023/04/18 06:50:57;;;;;;;13.20;9.57;;;10.30;99.90;;;;;;4990500;28;20697;-44
2023/04/18 06:53:22;;;;;;;10.85;8.40;;;10.10;99.90;;;;;;4990610;28;20660;-45
2023/04/18 06:55:48;;;;;;;14.25;9.30;;;10.20;99.90;;;;;;4990452;28;20538;-44
2023/04/18 06:58:15;;;;;;;15.32;8.70;;;10.10;99.90;;;;;;4990437;28;20226;-45
2023/04/18 07:00:42;;;;;;;12.48;8.60;;;10.20;99.90;;;;;;4990921;28;20157;-44
2023/04/18 07:03:11;;;;;;;10.13;8.05;;;10.20;99.90;;;;;;4990572;28;20169;-44
2023/04/18 07:05:40;;;;;;;11.32;9.05;;;10.60;99.90;;;;;;4990370;28;20161;-44
2023/04/18 07:08:06;;;;;;;15.52;9.00;;;10.50;99.90;;;;;;4990127;28;20261;-44
2023/04/18 07:10:32;;;;;;;13.27;8.55;;;10.70;99.90;;;;;;4980902;28;20266;-45
2023/04/18 07:12:57;;;;;;;12.05;7.95;;;10.60;99.90;;;;;;4970719;28;20181;-44
2023/04/18 07:15:23;;;;;;;11.95;8.23;;;10.70;99.90;;;;;;4970730;28;20180;-44
2023/04/18 07:17:49;;;;;;;13.48;8.88;;;10.50;99.90;;;;;;4970799;28;20180;-45
2023/04/18 07:20:15;;;;;;;9.50;7.50;;;10.50;99.90;;;;;;4970693;28;20166;-44
2023/04/18 07:22:40;;;;;;;13.55;8.00;;;10.40;99.90;;;;;;4971256;28;20264;-44
2023/04/18 07:25:06;;;;;;;10.95;8.38;;;10.40;99.90;;;;;;4970571;28;20252;-48
2023/04/18 07:27:35;;;;;;;9.60;7.70;;;10.60;99.90;;;;;;4970467;28;20579;-48
2023/04/18 07:30:02;;;;;;;9.18;6.80;;;10.60;99.90;;;;;;4970499;28;20252;-47
2023/04/18 07:32:28;;;;;;;9.77;7.68;;;;;;;;;;4970188;28;20212;-47
2023/04/18 07:34:54;;;;;;;9.68;6.15;;;;;;;;;;4970507;28;20578;-47
2023/04/18 07:37:20;;;;;;;12.13;7.05;;;;;;;;;;4969096;28;20269;-48
2023/04/18 07:39:50;;;;;;;10.13;6.72;;;11.00;99.90;;;;;;4972872;28;20221;-48
2023/04/18 07:42:16;;;;;;;8.68;6.93;;;11.30;99.90;;;;;;4989966;28;20172;-48
2023/04/18 07:44:42;;;;;;;8.50;6.82;;;;;;;;;;4990244;28;20237;-48
2023/04/18 07:47:11;;;;;;;7.43;6.60;;;11.50;99.90;;;;;;4989812;28;20208;-48
2023/04/18 07:49:37;;;;;;;8.80;6.00;;;;;;;;;;4974935;28;20173;-48
2023/04/18 07:52:03;;;;;;;7.40;5.80;;;;;;;;;;4970121;28;20702;-44
2023/04/18 07:54:29;;;;;;;6.07;5.47;;;;;;;;;;4970006;28;20173;-44
2023/04/18 07:56:55;;;;;;;8.98;6.15;;;11.80;99.90;;;;;;4970304;28;20184;-45
2023/04/18 07:59:21;;;;;;;9.18;5.90;;;12.00;99.90;;;;;;4969953;28;20161;-45
2023/04/18 08:01:47;;;;;;;7.05;5.22;;;12.10;99.90;;;;;;4970449;28;20701;-45
2023/04/18 08:04:13;;;;;;;6.13;5.38;;;;;;;;;;4970161;28;20513;-44
2023/04/18 08:06:39;;;;;;;8.18;5.32;;;12.10;99.90;;;;;;4970189;28;20544;-44
2023/04/18 08:09:05;;;;;;;7.75;5.82;;;12.10;99.90;;;;;;4969863;28;20225;-45
2023/04/18 08:11:32;;;;;;;6.60;5.25;;;12.20;99.90;;;;;;4973729;28;20188;-45
2023/04/18 08:13:57;;;;;;;6.47;5.25;;;12.20;99.90;;;;;;4970180;28;20214;-46
2023/04/18 08:16:23;;;;;;;7.55;5.70;;;;;;;;;;4970233;28;20622;-45
2023/04/18 08:18:49;;;;;;;6.93;5.18;;;12.20;99.90;;;;;;4969893;28;20169;-48
2023/04/18 08:21:14;;;;;;;6.38;5.50;;;12.10;99.90;;;;;;4969830;28;20169;-45
2023/04/18 08:23:40;;;;;;;7.78;5.15;;;12.40;99.90;;;;;;4969993;28;20173;-44
2023/04/18 08:26:06;;;;;;;8.25;5.55;;;;;;;;;;4969723;28;20189;-44
2023/04/18 08:28:31;;;;;;;8.90;6.38;;;12.40;99.90;;;;;;4968236;28;20217;-45
2023/04/18 08:30:57;;;;;;;6.95;5.72;;;12.80;99.90;;;;;;4969699;28;20219;-45
2023/04/18 08:33:23;;;;;;;8.48;6.50;;;;;;;;;;4969682;28;20597;-45
2023/04/18 08:35:52;;;;;;;5.78;5.15;;;12.40;99.90;;;;;;4969725;28;20166;-46
2023/04/18 08:38:18;;;;;;;12.70;5.57;;;12.40;99.90;;;;;;4968296;28;20177;-45
2023/04/18 08:40:44;;;;;;;8.13;5.70;;;12.30;99.90;;;;;;4981854;28;20338;-45
2023/04/18 08:43:13;;;;;;;7.78;5.30;;;12.10;99.90;;;;;;4988908;28;20173;-44
2023/04/18 08:45:40;;;;;;;7.18;5.47;;;;;;;;;;4988350;28;20528;-45
2023/04/18 08:48:06;;;;;;;7.18;5.60;;;12.20;99.90;;;;;;4989092;28;20200;-45
2023/04/18 08:50:32;;;;;;;14.77;6.18;;;12.20;99.90;;;;;;4989130;28;20173;-45
2023/04/18 08:52:59;;;;;;;6.85;5.13;;;12.40;99.90;;;;;;4988985;28;20648;-44
2023/04/18 08:55:25;;;;;;;8.35;5.53;;;;;;;;;;4989101;28;20181;-44
2023/04/18 08:57:54;;;;;;;7.20;5.85;;;12.30;99.90;;;;;;4987815;28;20226;-44
2023/04/18 09:00:19;;;;;;;7.10;5.70;;;12.60;99.90;;;;;;4988924;28;20252;-44
2023/04/18 09:02:45;;;;;;;7.53;5.70;;;12.70;99.90;;;;;;4988785;28;20251;-44
2023/04/18 09:05:12;;;;;;;8.10;5.80;;;;;;;;;;4989171;28;20646;-44
2023/04/18 09:07:37;;;;;;;6.80;5.68;;;12.60;99.90;;;;;;4988840;28;20208;-45
2023/04/18 09:10:03;;;;;;;7.10;5.97;;;12.40;99.90;;;;;;4980973;28;20217;-45
2023/04/18 09:12:31;;;;;;;5.85;5.25;;;12.50;99.90;;;;;;4968975;28;20660;-46
2023/04/18 09:15:10;;;;;;;6.40;5.75;;;12.50;99.90;;;;;;4968955;28;20538;-45
2023/04/18 09:17:40;;;;;;;6.60;5.53;;;12.50;99.90;;;;;;4969088;28;20641;-45
2023/04/18 09:20:09;;;;;;;6.35;5.55;;;;;;;;;;4969325;28;20181;-45
2023/04/18 09:22:46;;;;;;;5.60;5.05;;;;;;;;;;4968917;28;20642;-46
2023/04/18 09:25:24;;;;;;;5.63;5.07;;;12.60;99.90;;;;;;4968995;28;20507;-45
2023/04/18 09:27:51;;;;;;;12.77;5.38;;;12.60;99.90;;;;;;4969077;28;20221;-45
2023/04/18 09:30:35;;;;;;;6.53;5.53;;;12.60;99.90;;;;;;4969188;28;20169;-46
2023/04/18 09:33:02;;;;;;;8.65;6.00;;;12.50;99.90;;;;;;4968900;28;20161;-45
2023/04/18 09:35:28;;;;;;;7.25;5.50;;;;;;;;;;4968938;28;20626;-47
2023/04/18 09:37:54;;;;;;;7.93;5.65;;;12.40;99.90;;;;;;4969001;28;20257;-48
2023/04/18 09:40:20;;;;;;;8.57;6.07;;;12.30;99.90;;;;;;4977490;28;20230;-46
2023/04/18 09:42:49;;;;;;;7.10;5.70;;;12.50;99.90;;;;;;4988305;28;20174;-47
2023/04/18 09:45:15;;;;;;;7.93;5.95;;;12.70;99.90;;;;;;4986838;28;20172;-47
2023/04/18 09:47:40;;;;;;;7.13;5.72;;;12.60;99.90;;;;;;4988505;28;20688;-46
2023/04/18 09:50:08;;;;;;;6.20;5.30;;;12.70;99.90;;;;;;4988184;28;20169;-45
2023/04/18 09:52:35;;;;;;;6.10;5.50;;;;;;;;;;4988076;28;20180;-47
2023/04/18 09:55:03;;;;;;;7.70;6.18;;;12.90;99.90;;;;;;4988405;28;20165;-49
2023/04/18 09:57:30;;;;;;;6.50;5.25;;;12.90;99.90;;;;;;4991123;28;20172;-48
2023/04/18 10:00:16;;;;;;;5.88;5.28;;;13.00;99.90;;;;;;4991624;28;20263;-45
2023/04/18 10:02:51;;;;;;;8.10;5.78;;;13.20;99.90;;;;;;4991419;28;20169;-45
2023/04/18 10:05:19;;;;;;;6.60;5.30;;;13.40;99.90;;;;;;4991273;28;20221;-45
2023/04/18 10:07:46;;;;;;;7.43;5.80;;;13.30;99.90;;;;;;4991304;28;20221;-46
2023/04/18 10:10:13;;;;;;;7.82;5.50;;;;;;;;;;4980539;28;20221;-47
2023/04/18 10:12:40;;;;;;;7.05;5.70;;;13.80;99.90;;;;;;4972292;28;20185;-46
2023/04/18 10:15:07;;;;;;;6.70;4.85;;;13.80;99.90;;;;;;4971938;28;20177;-46
2023/04/18 10:17:42;;;;;;;8.00;5.70;;;;;;;;;;4971675;28;20191;-45
2023/04/18 10:20:11;;;;;;;5.55;4.90;;;13.50;99.90;;;;;;4972055;28;20192;-46
2023/04/18 10:22:37;;;;;;;7.18;5.43;;;;;;;;;;4972170;28;20177;-45
2023/04/18 10:25:03;;;;;;;6.57;5.18;;;;;;;;;;4971624;28;20227;-45
2023/04/18 10:27:47;;;;;;;6.07;5.45;;;13.50;99.90;;;;;;4970043;28;20228;-45
2023/04/18 10:30:16;;;;;;;7.45;5.28;;;;;;;;;;4971402;28;20200;-45
2023/04/18 10:32:44;;;;;;;7.32;5.68;;;14.30;99.90;;;;;;4971508;28;20169;-45
2023/04/18 10:35:10;;;;;;;7.38;5.55;;;;;;;;;;4971644;28;20168;-46
2023/04/18 10:37:49;;;;;;;6.43;5.10;;;14.20;99.90;;;;;;4971381;28;20176;-45
2023/04/18 10:40:15;;;;;;;6.07;5.47;;;14.00;99.90;;;;;;4980061;28;20177;-46
2023/04/18 10:42:46;;;;;;;5.47;4.72;;;14.00;99.90;;;;;;4991360;28;20180;-45
2023/04/18 10:45:35;;;;;;;5.72;5.07;;;14.10;99.90;;;;;;4990848;28;20173;-45
2023/04/18 10:48:30;;;;;;;5.82;5.10;;;14.00;99.90;;;;;;4990471;28;20211;-44
2023/04/18 10:51:15;;;;;;;5.05;4.40;;;13.90;99.90;;;;;;4990644;28;20686;-45
2023/04/18 10:53:57;;;;;;;6.05;5.45;;;13.90;99.90;;;;;;4989676;28;20173;-45
2023/04/18 10:56:24;;;;;;;7.70;5.72;;;13.90;99.90;;;;;;4990429;28;20171;-45
2023/04/18 10:58:51;;;;;;;7.10;5.35;;;14.00;99.90;;;;;;4990313;28;20165;-44
2023/04/18 11:01:28;;;;;;;8.80;5.50;;;14.20;99.90;;;;;;4990470;28;20268;-45
2023/04/18 11:03:54;;;;;;;6.93;5.70;;;14.10;99.90;;;;;;4990633;28;20165;-45
2023/04/18 11:06:21;;;;;;;6.93;5.80;;;14.20;99.90;;;;;;4990264;28;20594;-45
2023/04/18 11:08:50;;;;;;;6.20;5.40;;;14.30;99.90;;;;;;4986894;28;20238;-45
2023/04/18 11:11:16;;;;;;;6.65;5.30;;;14.70;99.90;;;;;;4970682;28;20170;-45
2023/04/18 11:13:58;;;;;;;6.18;5.10;;;14.60;99.90;;;;;;4970651;28;20235;-45
2023/04/18 11:16:31;;;;;;;6.15;5.55;;;14.70;99.90;;;;;;4970702;28;20663;-45
2023/04/18 11:18:57;;;;;;;5.80;5.20;;;14.70;99.90;;;;;;4970928;28;20534;-45
2023/04/18 11:21:27;;;;;;;8.05;5.30;;;14.80;99.90;;;;;;4970600;28;20170;-47
2023/04/18 11:23:57;;;;;;;5.47;4.90;;;15.00;99.90;;;;;;4970844;28;20166;-45
2023/04/18 11:26:27;;;;;;;8.70;5.63;;;15.00;99.90;;;;;;4970496;28;20173;-45
2023/04/18 11:28:56;;;;;;;7.30;5.10;;;15.50;99.90;;;;;;4970453;28;20681;-45
2023/04/18 11:31:23;;;;;;;5.50;5.00;;;;;;;;;;4970575;28;20165;-45
2023/04/18 11:33:55;;;;;;;6.95;5.85;;;15.80;99.90;;;;;;4970518;28;20641;-45
2023/04/18 11:36:20;;;;;;;6.35;5.35;;;15.30;99.90;;;;;;4969267;28;20166;-45
2023/04/18 11:38:46;;;;;;;6.60;5.57;;;15.30;99.90;;;;;;4969281;28;20264;-44
2023/04/18 11:41:13;;;;;;;6.63;5.63;;;15.20;99.90;;;;;;4971127;28;20173;-45
2023/04/18 11:43:44;;;;;;;6.80;6.10;;;15.30;99.90;;;;;;4970882;28;20169;-46
2023/04/18 11:46:11;;;;;;;7.60;5.43;;;;;;;;;;4970794;28;20168;-45
2023/04/18 11:48:42;;;;;;;8.63;6.30;;;15.10;99.90;;;;;;4970576;28;20236;-45
2023/04/18 11:51:31;;;;;;;8.05;5.80;;;15.20;99.90;;;;;;4970588;28;20646;-45
2023/04/18 11:53:57;;;;;;;7.00;5.60;;;;;;;;;;4970370;28;20259;-45
2023/04/18 11:56:23;;;;;;;7.82;6.43;;;15.50;99.90;;;;;;4970123;28;20216;-47
2023/04/18 11:58:49;;;;;;;8.23;7.32;;;;;;;;;;4970136;28;20201;-48
2023/04/18 12:01:19;;;;;;;9.25;7.25;;;15.20;99.90;;;;;;4970044;28;20173;-48
2023/04/18 12:04:05;;;;;;;11.90;7.05;;;15.40;99.90;;;;;;4969920;28;20686;-46
2023/04/18 12:06:52;;;;;;;9.68;7.28;;;14.80;99.90;;;;;;4970063;28;20193;-47
2023/04/18 12:09:18;;;;;;;8.52;7.40;;;;;;;;;;4974111;28;20219;-48
2023/04/18 12:12:02;;;;;;;8.48;7.22;;;14.90;99.90;;;;;;4988158;28;20249;-48
2023/04/18 12:14:29;;;;;;;11.40;7.78;;;14.80;99.90;;;;;;4989325;28;20160;-45
2023/04/18 12:16:55;;;;;;;7.65;6.70;;;15.30;99.90;;;;;;4989274;28;20251;-45
2023/04/18 12:19:28;;;;;;;13.27;7.53;;;;;;;;;;4988032;28;20168;-43
2023/04/18 12:22:05;;;;;;;14.43;8.32;;;16.00;99.90;;;;;;4989076;28;20200;-44
2023/04/18 12:24:31;;;;;;;11.07;7.90;;;15.70;99.90;;;;;;4989359;28;20188;-46
2023/04/18 12:27:00;;;;;;;9.73;8.23;;;;;;;;;;4988922;28;20208;-44
2023/04/18 12:29:27;;;;;;;11.85;8.57;;;;;;;;;;4989021;28;20574;-44
2023/04/18 12:31:53;;;;;;;10.50;8.75;;;16.00;99.90;;;;;;4989063;28;20652;-46
2023/04/18 12:34:18;;;;;;;11.98;8.77;;;15.80;99.90;;;;;;4989084;28;20200;-45
2023/04/18 12:36:44;;;;;;;10.73;8.70;;;15.80;99.90;;;;;;4989026;28;20184;-45
2023/04/18 12:53:42;;;;;;;9.77;7.30;;;15.50;99.90;;;;;;4981875;28;20546;-44
2023/04/18 12:56:08;;;;;;;11.43;8.38;;;15.40;99.90;;;;;;4989100;28;20177;-44
2023/04/18 12:58:34;;;;;;;9.77;8.32;;;;;;;;;;4989113;28;20175;-45
2023/04/18 13:01:00;;;;;;;9.98;8.35;;;15.50;99.90;;;;;;4988788;28;20179;-45
2023/04/18 13:03:25;;;;;;;10.13;8.18;;;15.50;99.90;;;;;;4988934;28;20165;-47
2023/04/18 13:05:54;;;;;;;9.35;8.02;;;15.70;99.90;;;;;;4984250;28;20169;-48
2023/04/18 13:08:21;;;;;;;9.82;6.50;;;15.30;99.90;;;;;;4968959;28;20299;-47
2023/04/18 13:10:47;;;;;;;9.57;7.43;;;;;;;;;;4969162;28;20178;-47
2023/04/18 13:13:12;;;;;;;10.52;8.57;;;15.40;99.90;;;;;;4969134;28;20177;-47
2023/04/18 13:15:38;;;;;;;10.55;6.68;;;;;;;;;;4970497;28;20243;-47
2023/04/18 13:18:05;;;;;;;9.25;7.55;;;15.20;99.90;;;;;;4969100;28;20180;-44
2023/04/18 13:20:31;;;;;;;9.77;7.53;;;;;;;;;;4969049;28;20626;-45